Time;durP1;ratioP1;P1;durP2;ratioP2;P2;SDS_P1;SDS_P2;PMS_P1;PMS_P2;Temp;Humidity;BMP_temperature;BMP_pressure;BME280_temperature;BME280_humidity;BME280_pressure;Samples;Min_cycle;Max_cycle;Signal;HPM_P1;HPM_P2
2023/03/06 00:01:38;;;;;;;4.95;4.55;;;;;;;3.20;89.68;97855.56;4145246;28;20288;-48
2023/03/06 00:03:40;;;;;;;4.53;4.13;;;;;;;3.21;90.27;97852.63;4152684;28;20293;-47
2023/03/06 00:05:41;;;;;;;4.78;4.38;;;;;;;3.23;90.46;97855.09;4161545;28;20219;-47
2023/03/06 00:07:43;;;;;;;4.88;4.47;;;;;;;3.22;90.30;97848.91;4162582;28;20613;-47
2023/03/06 00:09:45;;;;;;;5.30;4.82;;;;;;;3.27;89.83;97840.94;4162181;28;20312;-46
2023/03/06 00:11:46;;;;;;;5.45;4.95;;;;;;;3.25;90.14;97845.75;4161013;28;20248;-47
2023/03/06 00:13:48;;;;;;;6.95;4.93;;;;;;;3.27;89.76;97840.94;4160825;28;20252;-47
2023/03/06 00:15:50;;;;;;;5.47;4.97;;;;;;;3.23;89.63;97839.72;4161034;28;20216;-47
2023/03/06 00:17:52;;;;;;;5.55;5.05;;;;;;;3.22;89.41;97843.50;4161650;28;20263;-47
2023/03/06 00:19:54;;;;;;;5.35;4.85;;;;;;;3.24;90.12;97849.50;4162032;28;20342;-47
2023/03/06 00:21:56;;;;;;;6.05;5.47;;;;;;;3.21;89.84;97841.00;4177836;28;20295;-47
2023/03/06 00:23:57;;;;;;;5.60;5.10;;;;;;;3.21;89.90;97836.41;4165833;28;20208;-47
2023/03/06 00:25:59;;;;;;;6.43;5.93;;;;;;;3.17;89.94;97829.81;4161902;28;20765;-47
2023/03/06 00:28:00;;;;;;;5.88;5.38;;;;;;;3.23;89.95;97828.91;4161543;28;20701;-47
2023/03/06 00:30:03;;;;;;;4.25;3.67;;;;;;;3.18;90.28;97831.44;4162127;28;20832;-46
2023/03/06 00:32:05;;;;;;;6.22;5.55;;;;;;;3.16;90.75;97833.56;4175491;28;20334;-46
2023/03/06 00:34:06;;;;;;;5.00;4.40;;;;;;;3.18;90.67;97847.66;4155501;28;20213;-47
2023/03/06 00:36:08;;;;;;;5.07;4.68;;;;;;;3.19;90.87;97843.06;4154199;28;20211;-47
2023/03/06 00:38:11;;;;;;;5.03;4.63;;;;;;;3.16;90.57;97836.25;4151410;28;20667;-47
2023/03/06 00:40:17;;;;;;;5.43;4.93;;;;;;;3.15;91.12;97831.88;4161553;28;20671;-46
2023/03/06 00:42:19;;;;;;;5.93;5.40;;;;;;;3.19;91.27;97833.09;4178457;28;20200;-47
2023/03/06 00:44:20;;;;;;;5.78;5.32;;;;;;;3.30;91.11;97834.25;4179989;28;20702;-46
2023/03/06 00:46:22;;;;;;;5.10;4.68;;;;;;;3.31;90.75;97825.09;4161905;28;21016;-46
2023/03/06 00:48:23;;;;;;;6.80;6.18;;;;;;;3.18;91.42;97817.94;4167770;28;20228;-47
2023/03/06 00:50:25;;;;;;;6.47;5.97;;;;;;;3.10;91.02;97817.38;4169132;28;20228;-47
2023/03/06 00:52:27;;;;;;;7.35;6.65;;;;;;;3.05;91.42;97823.44;4167995;28;20247;-49
2023/03/06 00:54:28;;;;;;;8.15;7.35;;;;;;;3.09;91.58;97821.97;4161846;28;20295;-46
2023/03/06 00:56:30;;;;;;;7.10;6.35;;;;;;;2.95;91.85;97809.59;4160533;28;20799;-48
2023/03/06 00:58:32;;;;;;;5.75;5.25;;;;;;;2.79;92.83;97798.50;4178534;28;20271;-47
2023/03/06 01:00:33;;;;;;;6.93;6.07;;;;;;;2.87;92.59;97796.34;4160653;28;20735;-47
2023/03/06 01:02:35;;;;;;;9.48;6.47;;;;;;;2.98;92.02;97798.34;4144455;28;20246;-46
2023/03/06 01:04:37;;;;;;;5.38;4.30;;;;;;;2.92;92.29;97799.22;4160232;28;20296;-47
2023/03/06 01:06:38;;;;;;;5.65;5.25;;;;;;;2.98;92.04;97798.34;4177833;28;20208;-46
2023/03/06 01:08:40;;;;;;;7.38;6.68;;;;;;;2.84;92.93;97785.16;4160774;28;20264;-46
2023/03/06 01:10:42;;;;;;;8.65;5.75;;;;;;;2.66;93.93;97780.50;4161063;28;20383;-46
2023/03/06 01:12:44;;;;;;;8.13;6.28;;;;;;;2.80;93.50;97773.97;4176672;28;20311;-46
2023/03/06 01:14:46;;;;;;;6.55;5.47;;;;;;;2.90;93.10;97779.72;4177234;28;20295;-46
2023/03/06 01:16:47;;;;;;;5.72;5.32;;;;;;;2.86;93.13;97773.09;4165744;28;20323;-46
2023/03/06 01:18:49;;;;;;;11.48;6.70;;;;;;;2.89;92.13;97772.69;4160799;28;20323;-46
2023/03/06 01:20:51;;;;;;;7.55;6.88;;;;;;;2.85;92.59;97765.19;4160781;28;20232;-46
2023/03/06 01:22:54;;;;;;;5.95;5.45;;;;;;;2.87;92.33;97763.13;4169427;28;20215;-47
2023/03/06 01:24:55;;;;;;;7.10;6.38;;;;;;;2.82;92.06;97760.25;4178114;28;20212;-47
2023/03/06 01:26:57;;;;;;;7.85;6.63;;;;;;;2.80;91.73;97763.16;4163163;28;20236;-47
2023/03/06 01:28:59;;;;;;;7.43;6.75;;;;;;;2.89;91.59;97748.34;4177068;28;20893;-47
2023/03/06 01:31:01;;;;;;;11.27;5.70;;;;;;;2.98;91.01;97754.28;4159895;28;20236;-47
2023/03/06 01:33:03;;;;;;;6.97;6.38;;;;;;;2.97;90.91;97748.06;4158605;28;20232;-47
2023/03/06 01:35:05;;;;;;;7.55;6.65;;;;;;;2.88;91.32;97749.38;4162980;28;20288;-47
2023/03/06 01:37:07;;;;;;;6.60;5.53;;;;;;;2.92;90.80;97739.81;4161248;28;20632;-47
2023/03/06 01:39:09;;;;;;;10.93;7.03;;;;;;;2.86;91.13;97746.09;4160080;28;20653;-47
2023/03/06 01:41:14;;;;;;;6.63;6.10;;;;;;;2.92;91.25;97739.81;4175909;28;20211;-47
2023/03/06 01:43:27;;;;;;;9.02;7.80;;;;;;;2.88;91.64;97737.75;4177186;28;20357;-46
2023/03/06 01:45:29;;;;;;;7.05;6.38;;;;;;;2.88;91.91;97741.28;4159010;28;20209;-47
2023/03/06 01:47:31;;;;;;;7.45;6.75;;;;;;;2.85;91.49;97739.03;4160453;28;20243;-49
2023/03/06 01:49:35;;;;;;;8.35;6.65;;;;;;;2.86;91.24;97737.97;4160681;28;20270;-47
2023/03/06 01:51:40;;;;;;;7.47;6.82;;;;;;;2.86;91.77;97737.97;4159932;28;20551;-46
2023/03/06 01:53:44;;;;;;;7.32;6.63;;;;;;;2.86;91.10;97735.28;4160623;28;20725;-47
2023/03/06 01:55:49;;;;;;;6.97;6.30;;;;;;;2.78;91.56;97732.84;4160332;28;21912;-47
2023/03/06 01:57:54;;;;;;;7.50;6.20;;;;;;;2.93;91.69;97729.84;4142944;28;20213;-46
2023/03/06 02:00:10;;;;;;;7.57;6.88;;;;;;;2.81;90.99;97724.31;4164008;28;20264;-46
2023/03/06 02:02:13;;;;;;;9.25;8.35;;;;;;;2.89;91.10;97729.44;4157971;28;20678;-48
2023/03/06 02:04:16;;;;;;;7.97;7.30;;;;;;;2.98;91.18;97727.28;4150739;28;20268;-47
2023/03/06 02:06:20;;;;;;;8.00;6.75;;;;;;;2.88;91.45;97722.38;4176117;28;20298;-47
2023/03/06 02:08:22;;;;;;;9.57;6.85;;;;;;;2.95;91.15;97720.44;4160350;28;20718;-47
2023/03/06 02:10:24;;;;;;;8.88;8.07;;;;;;;2.92;91.67;97723.59;4175266;28;20255;-47
2023/03/06 02:12:26;;;;;;;9.00;7.60;;;;;;;2.88;91.29;97716.97;4158646;28;20311;-46
2023/03/06 02:14:28;;;;;;;8.57;7.78;;;;;;;3.01;90.95;97716.84;4143573;28;20296;-46
2023/03/06 02:16:31;;;;;;;6.60;6.00;;;;;;;2.99;91.66;97718.94;4159204;28;20292;-47
2023/03/06 02:18:34;;;;;;;7.47;6.78;;;;;;;3.03;91.28;97713.94;4143701;28;20583;-47
2023/03/06 02:20:45;;;;;;;7.85;7.15;;;;;;;3.01;91.72;97716.84;4165334;28;20283;-47
2023/03/06 02:22:46;;;;;;;7.82;7.10;;;;;;;3.08;91.29;97720.31;4177353;28;20581;-46
2023/03/06 02:25:03;;;;;;;6.35;5.75;;;;;;;3.11;91.00;97711.78;4176557;28;20303;-47
2023/03/06 02:27:06;;;;;;;7.80;7.10;;;;;;;3.12;90.87;97713.44;4169386;28;20661;-47
2023/03/06 02:29:08;;;;;;;7.83;7.03;;;;;;;3.05;91.91;97709.13;4158648;28;20740;-46
2023/03/06 02:31:20;;;;;;;12.48;7.57;;;;;;;3.03;91.47;97703.13;4176857;28;20440;-47
2023/03/06 02:33:25;;;;;;;10.93;7.80;;;;;;;3.02;91.42;97707.69;4175825;28;20541;-47
2023/03/06 02:35:34;;;;;;;8.15;7.40;;;;;;;3.07;91.81;97704.34;4160471;28;20299;-47
2023/03/06 02:37:36;;;;;;;8.10;7.38;;;;;;;3.08;91.82;97700.59;4159952;28;20660;-47
2023/03/06 02:39:46;;;;;;;7.05;6.35;;;;;;;3.06;91.71;97698.09;4143009;28;20227;-47
2023/03/06 02:41:47;;;;;;;8.98;7.15;;;;;;;3.01;92.00;97694.41;4158931;28;20777;-47
2023/03/06 02:43:50;;;;;;;9.20;6.97;;;;;;;3.09;91.67;97700.38;4160437;28;20332;-47
2023/03/06 02:45:52;;;;;;;9.48;5.65;;;;;;;3.02;92.31;97685.25;4143790;28;20300;-47
2023/03/06 02:47:54;;;;;;;8.48;7.68;;;;;;;2.99;91.73;97691.94;4166937;28;20208;-47
2023/03/06 02:49:55;;;;;;;8.05;7.25;;;;;;;3.01;92.03;97687.13;4159424;28;20593;-48
2023/03/06 02:51:57;;;;;;;9.45;7.32;;;;;;;3.00;92.02;97688.19;4177512;28;20208;-47
2023/03/06 02:53:59;;;;;;;8.00;7.13;;;;;;;3.04;91.85;97678.59;4158567;28;20546;-47
2023/03/06 02:56:01;;;;;;;7.90;7.20;;;;;;;3.05;91.92;97674.84;4175198;28;20308;-48
2023/03/06 02:58:03;;;;;;;8.90;6.95;;;;;;;3.05;91.49;97672.13;4143717;28;20220;-47
2023/03/06 03:00:05;;;;;;;10.95;8.20;;;;;;;2.98;92.06;97679.47;4164998;28;20239;-47
2023/03/06 03:02:07;;;;;;;7.78;7.07;;;;;;;2.95;92.18;97674.50;4159050;28;20243;-47
2023/03/06 03:04:09;;;;;;;11.40;8.45;;;;;;;2.96;91.76;97676.19;4159522;28;20212;-47
2023/03/06 03:06:10;;;;;;;7.55;6.88;;;;;;;3.01;92.06;97679.03;4159763;28;20201;-47
2023/03/06 03:08:12;;;;;;;8.10;7.28;;;;;;;2.98;92.07;97674.06;4165192;28;20236;-47
2023/03/06 03:10:14;;;;;;;9.27;8.38;;;;;;;3.02;91.84;97675.25;4176375;28;20662;-47
2023/03/06 03:12:15;;;;;;;8.35;7.55;;;;;;;2.97;92.30;97672.44;4176355;28;20636;-46
2023/03/06 03:14:17;;;;;;;12.70;8.90;;;;;;;3.12;92.45;97674.75;4160044;28;20679;-47
2023/03/06 03:16:19;;;;;;;8.15;7.35;;;;;;;2.96;92.42;97668.06;4158770;28;20205;-47
2023/03/06 03:18:20;;;;;;;7.05;6.45;;;;;;;2.92;93.08;97669.56;4173860;28;20222;-47
2023/03/06 03:20:22;;;;;;;8.63;7.85;;;;;;;2.93;92.80;97665.81;4146637;28;20695;-47
2023/03/06 03:22:24;;;;;;;8.50;7.03;;;;;;;2.96;92.35;97667.25;4146000;28;20251;-47
2023/03/06 03:24:26;;;;;;;8.23;7.45;;;;;;;2.93;92.71;97671.22;4166725;28;20288;-48
2023/03/06 03:26:27;;;;;;;9.75;7.53;;;;;;;2.90;93.06;97668.97;4162521;28;20326;-47
2023/03/06 03:28:29;;;;;;;8.80;7.90;;;;;;;2.93;92.63;97671.22;4178318;28;20534;-47
2023/03/06 03:30:31;;;;;;;9.05;8.25;;;;;;;2.93;93.07;97670.41;4179618;28;21026;-47
2023/03/06 03:32:32;;;;;;;9.10;7.82;;;;;;;2.86;92.87;97673.16;4146432;28;20305;-46
2023/03/06 03:34:34;;;;;;;8.88;8.18;;;;;;;2.92;93.02;97668.72;4163420;28;20678;-47
2023/03/06 03:36:36;;;;;;;8.98;8.07;;;;;;;2.87;93.32;97666.69;4179989;28;20235;-47
2023/03/06 03:38:38;;;;;;;9.75;7.72;;;;;;;2.98;93.16;97663.28;4179294;28;20327;-47
2023/03/06 03:40:39;;;;;;;8.35;7.47;;;;;;;2.85;94.31;97668.81;4161336;28;20299;-46
2023/03/06 03:42:41;;;;;;;8.20;7.47;;;;;;;2.87;93.69;97661.28;4163077;28;20677;-47
2023/03/06 03:44:43;;;;;;;7.57;6.90;;;;;;;2.93;93.85;97660.41;4163393;28;20781;-47
2023/03/06 03:46:44;;;;;;;10.57;8.23;;;;;;;2.69;95.30;97658.56;4168334;28;20251;-47
2023/03/06 03:48:46;;;;;;;7.57;6.88;;;;;;;2.70;95.16;97652.13;4147648;28;20809;-47
2023/03/06 03:50:48;;;;;;;9.25;8.40;;;;;;;2.72;94.86;97650.03;4163686;28;20359;-47
2023/03/06 03:52:49;;;;;;;10.38;9.38;;;;;;;2.80;95.25;97651.63;4177353;28;20273;-47
2023/03/06 03:54:51;;;;;;;8.18;7.47;;;;;;;2.74;94.84;97650.59;4179225;28;20211;-46
2023/03/06 03:56:53;;;;;;;9.57;8.68;;;;;;;2.84;95.17;97650.09;4163604;28;20307;-46
2023/03/06 03:58:54;;;;;;;9.80;7.97;;;;;;;2.85;94.75;97647.19;4162808;28;20260;-46
2023/03/06 04:00:56;;;;;;;11.52;7.68;;;;;;;2.82;95.55;97647.63;4161236;28;20236;-46
2023/03/06 04:02:58;;;;;;;9.88;8.95;;;;;;;2.87;95.10;97644.28;4166996;28;20354;-47
2023/03/06 04:04:59;;;;;;;13.90;7.78;;;;;;;2.81;95.75;97639.75;4178935;28;20743;-47
2023/03/06 04:07:03;;;;;;;7.80;7.00;;;;;;;2.87;95.75;97634.28;4178211;28;20204;-47
2023/03/06 04:09:05;;;;;;;8.85;7.95;;;;;;;2.63;96.66;97637.84;4178263;28;20333;-46
2023/03/06 04:11:06;;;;;;;11.43;8.40;;;;;;;2.71;96.48;97637.56;4178798;28;20354;-47
2023/03/06 04:13:08;;;;;;;8.45;7.75;;;;;;;2.75;96.75;97633.34;4162115;28;20746;-47
2023/03/06 04:15:10;;;;;;;8.95;8.05;;;;;;;2.79;97.07;97629.16;4162103;28;20729;-46
2023/03/06 04:17:12;;;;;;;8.73;7.68;;;;;;;2.74;96.75;97631.72;4162411;28;20204;-47
2023/03/06 04:19:14;;;;;;;10.02;9.13;;;;;;;2.73;96.69;97631.94;4161569;28;20235;-47
2023/03/06 04:21:16;;;;;;;9.52;8.13;;;;;;;2.76;96.71;97621.53;4159743;28;20228;-46
2023/03/06 04:23:18;;;;;;;11.70;7.97;;;;;;;2.85;96.48;97619.34;4142818;28;20240;-47
2023/03/06 04:25:19;;;;;;;10.10;9.10;;;;;;;2.80;96.82;97620.00;4160724;28;20303;-47
2023/03/06 04:27:21;;;;;;;10.45;9.45;;;;;;;2.89;96.79;97615.16;4160911;28;20224;-46
2023/03/06 04:29:22;;;;;;;11.05;9.93;;;;;;;2.75;97.66;97625.25;4177752;28;20268;-47
2023/03/06 04:31:24;;;;;;;12.88;9.95;;;;;;;2.73;97.31;97615.75;4161600;28;20643;-47
2023/03/06 04:33:26;;;;;;;10.43;9.43;;;;;;;2.81;97.25;97618.97;4178781;28;20215;-46
2023/03/06 04:35:28;;;;;;;11.90;10.70;;;;;;;2.78;97.56;97614.03;4163087;28;20290;-46
2023/03/06 04:37:29;;;;;;;10.40;9.32;;;;;;;2.79;96.78;97621.06;4143930;28;20241;-46
2023/03/06 04:39:31;;;;;;;14.18;12.88;;;;;;;2.80;97.76;97614.63;4162956;28;20681;-47
2023/03/06 04:41:33;;;;;;;10.38;9.40;;;;;;;2.79;97.36;97615.66;4160198;28;20299;-46
2023/03/06 04:43:35;;;;;;;9.55;8.65;;;;;;;2.83;97.50;97606.09;4160654;28;20727;-46
2023/03/06 04:45:37;;;;;;;8.93;8.05;;;;;;;2.96;96.96;97616.75;4177060;28;20236;-47
2023/03/06 04:47:39;;;;;;;9.38;8.50;;;;;;;2.86;96.96;97610.22;4157332;28;20219;-47
2023/03/06 04:49:40;;;;;;;8.48;7.68;;;;;;;2.83;97.46;97611.47;4155564;28;20693;-47
2023/03/06 04:51:42;;;;;;;9.05;8.25;;;;;;;2.85;97.88;97608.53;4160476;28;20762;-47
2023/03/06 04:53:44;;;;;;;10.35;9.18;;;;;;;2.84;97.79;97609.59;4161206;28;20216;-47
2023/03/06 04:55:45;;;;;;;10.25;9.25;;;;;;;2.87;97.84;97603.75;4161470;28;20263;-46
2023/03/06 04:57:48;;;;;;;9.63;8.73;;;;;;;2.87;97.79;97611.88;4143932;28;20361;-45
2023/03/06 04:59:50;;;;;;;8.75;7.95;;;;;;;2.80;97.80;97611.09;4151717;28;20232;-48
2023/03/06 05:01:51;;;;;;;8.98;8.07;;;;;;;2.73;98.70;97600.34;4175278;28;20294;-47
2023/03/06 05:03:53;;;;;;;8.63;7.40;;;;;;;2.85;98.63;97603.97;4170025;28;20208;-47
2023/03/06 05:05:55;;;;;;;9.00;8.10;;;;;;;2.90;98.48;97603.28;4164260;28;20323;-46
2023/03/06 05:07:56;;;;;;;11.32;9.70;;;;;;;2.82;98.47;97599.00;4179567;28;20624;-46
2023/03/06 05:09:59;;;;;;;10.68;9.57;;;;;;;2.77;99.31;97596.16;4146930;28;20240;-46
2023/03/06 05:12:02;;;;;;;11.82;10.15;;;;;;;2.71;100.00;97601.63;4126771;28;20297;-47
2023/03/06 05:14:03;;;;;;;10.80;8.93;;;;;;;2.73;100.00;97597.66;4126659;28;20206;-47
2023/03/06 05:16:06;;;;;;;10.88;9.13;;;;;;;2.59;100.00;97606.94;4120434;28;20212;-48
2023/03/06 05:18:08;;;;;;;9.75;8.85;;;;;;;2.64;100.00;97599.00;4113212;28;20218;-47
2023/03/06 05:20:11;;;;;;;10.30;9.38;;;;;;;2.70;100.00;97605.38;4112399;28;20258;-48
2023/03/06 05:22:12;;;;;;;9.55;8.65;;;;;;;2.73;99.89;97594.94;4144305;28;20244;-47
2023/03/06 05:24:14;;;;;;;10.63;9.30;;;;;;;2.75;100.00;97595.53;4128935;28;20289;-47
2023/03/06 05:26:16;;;;;;;10.52;9.43;;;;;;;2.60;100.00;97595.09;4128072;28;20587;-47
2023/03/06 05:28:18;;;;;;;9.98;9.05;;;;;;;2.68;100.00;97592.09;4145635;28;20300;-48
2023/03/06 05:30:22;;;;;;;9.50;8.70;;;;;;;2.62;100.00;97595.69;4127240;28;20296;-46
2023/03/06 05:32:23;;;;;;;10.05;8.85;;;;;;;2.67;100.00;97589.63;4130036;28;20759;-47
2023/03/06 05:34:25;;;;;;;9.50;8.60;;;;;;;2.69;100.00;97593.75;4121079;28;20287;-47
2023/03/06 05:36:26;;;;;;;13.15;8.80;;;;;;;2.72;100.00;97593.31;4128353;28;20293;-47
2023/03/06 05:38:28;;;;;;;12.88;9.07;;;;;;;2.65;100.00;97591.72;4110103;28;20309;-47
2023/03/06 05:40:30;;;;;;;11.80;10.32;;;;;;;2.60;100.00;97589.69;4126699;28;20242;-47
2023/03/06 05:42:31;;;;;;;10.80;9.40;;;;;;;2.65;100.00;97589.84;4127788;28;20285;-46
2023/03/06 05:44:34;;;;;;;10.93;9.80;;;;;;;2.63;100.00;97585.72;4127789;28;20216;-47
2023/03/06 05:46:36;;;;;;;11.48;10.38;;;;;;;2.60;100.00;97584.28;4126331;28;20659;-46
2023/03/06 05:48:39;;;;;;;10.80;9.65;;;;;;;2.62;100.00;97587.56;4127860;28;20230;-48
2023/03/06 05:50:40;;;;;;;10.40;9.15;;;;;;;2.61;100.00;97580.53;4126236;28;20747;-51
2023/03/06 05:52:42;;;;;;;10.68;9.57;;;;;;;2.61;100.00;97582.44;4135619;28;20248;-47
2023/03/06 05:54:49;;;;;;;10.20;9.20;;;;;;;2.60;100.00;97581.59;4124579;28;20256;-47
2023/03/06 05:56:51;;;;;;;10.27;9.38;;;;;;;2.59;100.00;97579.94;4127416;28;20622;-46
2023/03/06 05:58:53;;;;;;;9.30;8.40;;;;;;;2.64;100.00;97588.19;4127881;28;20266;-46
2023/03/06 06:00:54;;;;;;;11.25;10.18;;;;;;;2.54;100.00;97585.16;4126105;28;20242;-46
2023/03/06 06:02:59;;;;;;;11.77;10.68;;;;;;;2.63;100.00;97583.03;4125898;28;20209;-47
2023/03/06 06:05:02;;;;;;;11.05;9.70;;;;;;;2.56;100.00;97583.09;4125459;28;20317;-48
2023/03/06 06:07:05;;;;;;;9.57;8.52;;;;;;;2.53;100.00;97574.63;4127650;28;20624;-47
2023/03/06 06:09:06;;;;;;;9.45;8.45;;;;;;;2.51;100.00;97580.22;4128711;28;20237;-48
2023/03/06 06:11:10;;;;;;;9.98;8.98;;;;;;;2.53;100.00;97580.81;4143339;28;20257;-47
2023/03/06 06:13:12;;;;;;;10.43;9.52;;;;;;;2.50;100.00;97588.53;4126341;28;20868;-47
2023/03/06 06:15:14;;;;;;;11.25;10.15;;;;;;;2.56;100.00;97587.66;4144991;28;20292;-47
2023/03/06 06:17:15;;;;;;;11.25;9.88;;;;;;;2.50;100.00;97591.25;4127254;28;20238;-47
2023/03/06 06:19:18;;;;;;;10.32;8.50;;;;;;;2.57;100.00;97582.03;4126551;28;20273;-47
2023/03/06 06:21:20;;;;;;;10.15;9.23;;;;;;;2.51;100.00;97596.44;4140118;28;20228;-47
2023/03/06 06:23:22;;;;;;;11.05;10.02;;;;;;;2.51;100.00;97601.81;4124202;28;20225;-47
2023/03/06 06:25:23;;;;;;;9.63;8.73;;;;;;;2.48;100.00;97598.75;4125342;28;20218;-47
2023/03/06 06:27:25;;;;;;;10.38;9.07;;;;;;;2.43;100.00;97591.31;4124186;28;20206;-47
2023/03/06 06:29:27;;;;;;;9.20;8.02;;;;;;;2.46;100.00;97596.25;4136997;28;20243;-48
2023/03/06 06:31:29;;;;;;;10.93;9.60;;;;;;;2.52;100.00;97600.78;4123256;28;20634;-48
2023/03/06 06:33:34;;;;;;;9.95;8.95;;;;;;;2.54;100.00;97590.56;4113772;28;20213;-48
2023/03/06 06:35:36;;;;;;;10.88;8.65;;;;;;;2.62;100.00;97592.97;4129725;28;20236;-47
2023/03/06 06:37:37;;;;;;;12.02;10.85;;;;;;;2.51;100.00;97599.13;4132928;28;20208;-47
2023/03/06 06:39:39;;;;;;;10.13;9.13;;;;;;;2.45;100.00;97597.31;4117387;28;20281;-49
2023/03/06 06:41:41;;;;;;;10.35;9.27;;;;;;;2.56;100.00;97598.47;4113856;28;20224;-48
2023/03/06 06:44:06;;;;;;;9.95;9.05;;;;;;;2.47;100.00;97595.22;4121122;28;20209;-46
2023/03/06 06:46:12;;;;;;;9.15;8.32;;;;;;;2.58;100.00;97590.94;4115915;28;20202;-47
2023/03/06 06:48:33;;;;;;;9.15;8.25;;;;;;;2.49;100.00;97606.63;4124386;28;20236;-47
2023/03/06 06:50:35;;;;;;;11.20;10.20;;;;;;;2.53;100.00;97599.72;4131682;28;20216;-47
2023/03/06 06:52:37;;;;;;;10.23;9.05;;;;;;;2.48;100.00;97591.47;4115601;28;20644;-47
2023/03/06 06:54:38;;;;;;;8.82;8.02;;;;;;;2.60;100.00;97600.47;4131077;28;20218;-47
2023/03/06 06:56:40;;;;;;;8.32;7.53;;;;;;;2.48;100.00;97601.44;4117010;28;20329;-47
2023/03/06 06:58:42;;;;;;;10.80;8.70;;;;;;;2.53;100.00;97609.72;4118166;28;20241;-47
2023/03/06 07:00:43;;;;;;;11.07;9.07;;;;;;;2.49;100.00;97606.63;4117682;28;20297;-47
2023/03/06 07:02:48;;;;;;;10.07;9.15;;;;;;;2.53;100.00;97602.41;4116231;28;20213;-47
2023/03/06 07:04:49;;;;;;;11.65;8.45;;;;;;;2.60;100.00;97597.78;4114359;28;20828;-47
2023/03/06 07:07:04;;;;;;;10.10;9.10;;;;;;;2.45;100.00;97600.00;4128124;28;20201;-47
2023/03/06 07:09:06;;;;;;;9.40;8.43;;;;;;;2.45;100.00;97594.63;4100901;28;20227;-47
2023/03/06 07:11:12;;;;;;;9.43;8.50;;;;;;;2.47;100.00;97595.22;4139214;28;20264;-47
2023/03/06 07:13:13;;;;;;;10.45;9.52;;;;;;;2.52;100.00;97597.25;4124374;28;20300;-47
2023/03/06 07:15:16;;;;;;;10.75;9.40;;;;;;;2.62;100.00;97592.97;4125738;28;20751;-47
2023/03/06 07:17:17;;;;;;;9.05;8.25;;;;;;;2.59;100.00;97593.44;4140515;28;20213;-47
2023/03/06 07:19:19;;;;;;;9.40;8.55;;;;;;;2.53;100.00;97601.63;4124568;28;20692;-47
2023/03/06 07:21:21;;;;;;;10.55;9.55;;;;;;;2.58;100.00;97604.44;4109899;28;20302;-47
2023/03/06 07:23:23;;;;;;;10.05;9.05;;;;;;;2.54;100.00;97606.78;4124218;28;20248;-47
2023/03/06 07:25:25;;;;;;;10.68;9.25;;;;;;;2.63;100.00;97594.66;4124718;28;20217;-47
2023/03/06 07:27:27;;;;;;;10.95;9.40;;;;;;;2.50;100.00;97602.88;4124818;28;20635;-48
2023/03/06 07:29:31;;;;;;;13.73;12.40;;;;;;;2.69;100.00;97607.28;4107712;28;20454;-48
2023/03/06 07:31:40;;;;;;;10.55;9.60;;;;;;;2.70;100.00;97606.22;4124869;28;20249;-48
2023/03/06 07:33:44;;;;;;;11.07;10.07;;;;;;;2.73;100.00;97605.75;4142216;28;20206;-47
2023/03/06 07:35:45;;;;;;;11.73;10.63;;;;;;;2.69;100.00;97603.72;4123226;28;20233;-48
2023/03/06 07:37:51;;;;;;;11.68;9.07;;;;;;;2.65;100.00;97594.41;4126723;28;20214;-47
2023/03/06 07:39:56;;;;;;;11.05;10.02;;;;;;;2.61;100.00;97596.72;4110660;28;20236;-47
2023/03/06 07:41:58;;;;;;;10.73;9.63;;;;;;;2.65;100.00;97597.09;4126402;28;20214;-47
2023/03/06 07:44:00;;;;;;;9.68;8.77;;;;;;;2.65;100.00;97600.66;4126747;28;20297;-47
2023/03/06 07:46:02;;;;;;;11.18;9.70;;;;;;;2.68;100.00;97599.38;4126208;28;20245;-47
2023/03/06 07:48:04;;;;;;;11.40;10.30;;;;;;;2.73;100.00;97603.06;4109817;28;20206;-48
2023/03/06 07:50:07;;;;;;;10.15;9.25;;;;;;;2.77;100.00;97603.44;4124340;28;20759;-48
2023/03/06 07:52:09;;;;;;;10.48;9.48;;;;;;;2.72;100.00;97605.97;4120985;28;20660;-49
2023/03/06 07:54:21;;;;;;;16.00;10.35;;;;;;;2.79;100.00;97604.88;4172104;22;20323;-66
2023/03/06 07:56:22;;;;;;;10.23;9.23;;;;;;;2.87;100.00;97612.66;4156441;28;20228;-56
2023/03/06 07:58:24;;;;;;;12.15;10.98;;;;;;;2.82;100.00;97609.81;4184987;22;21398;-83
2023/03/06 08:00:26;;;;;;;10.32;9.32;;;;;;;2.72;100.00;97604.09;4146021;28;20208;-85
2023/03/06 08:02:27;;;;;;;14.40;13.05;;;;;;;2.92;100.00;97612.84;4151123;28;20442;-85
2023/03/06 08:04:31;;;;;;;10.18;9.27;;;;;;;2.81;100.00;97613.56;4147050;28;20236;-85
2023/03/06 08:06:32;;;;;;;11.90;10.43;;;;;;;2.78;100.00;97605.06;4132473;28;20206;-85
2023/03/06 08:08:39;;;;;;;10.40;9.30;;;;;;;2.82;100.00;97612.50;4135240;28;20698;-86
2023/03/06 08:10:46;;;;;;;10.25;9.27;;;;;;;2.87;100.00;97615.38;4150908;28;20209;-86
2023/03/06 08:12:53;;;;;;;12.38;9.55;;;;;;;2.88;100.00;97619.72;4145979;28;20225;-85
2023/03/06 08:14:54;;;;;;;15.30;9.77;;;;;;;2.86;100.00;97621.81;4149394;28;20273;-85
2023/03/06 08:16:56;;;;;;;10.27;9.18;;;;;;;2.85;100.00;97620.19;4124811;28;20238;-84
2023/03/06 08:18:57;;;;;;;10.45;9.45;;;;;;;2.96;100.00;97630.25;4113383;28;20233;-85
2023/03/06 08:21:17;;;;;;;11.23;10.25;;;;;;;2.79;100.00;97631.88;4118781;28;20251;-85
2023/03/06 08:23:18;;;;;;;10.60;9.43;;;;;;;2.89;100.00;97625.97;4119487;28;20244;-85
2023/03/06 08:25:20;;;;;;;10.32;9.30;;;;;;;2.87;100.00;97634.28;4117727;28;20218;-83
2023/03/06 08:27:26;;;;;;;9.55;8.70;;;;;;;2.94;100.00;97631.53;4122034;28;20213;-86
2023/03/06 08:29:48;;;;;;;11.30;9.00;;;;;;;2.88;100.00;97624.31;4123077;28;20636;-85
2023/03/06 08:31:50;;;;;;;10.55;9.07;;;;;;;2.93;100.00;97627.19;4123346;28;20248;-83
2023/03/06 08:33:52;;;;;;;9.98;8.95;;;;;;;2.93;100.00;97632.59;4106231;28;20257;-85
2023/03/06 08:36:09;;;;;;;;;;;;;;;;;;;;;
2023/03/06 08:38:14;;;;;;;10.75;9.75;;;;;;;2.98;100.00;97630.84;4121106;28;20705;-86
2023/03/06 08:40:15;;;;;;;10.50;9.48;;;;;;;3.02;100.00;97629.34;4106325;28;20210;-86
2023/03/06 08:42:17;;;;;;;11.25;10.13;;;;;;;3.05;100.00;97636.16;4118484;28;20220;-86
2023/03/06 08:44:18;;;;;;;10.73;9.70;;;;;;;3.13;100.00;97628.59;4116598;28;20249;-85
2023/03/06 08:46:22;;;;;;;10.77;9.82;;;;;;;3.06;100.00;97627.84;4119614;28;20225;-85
2023/03/06 08:48:24;;;;;;;11.65;10.07;;;;;;;3.09;100.00;97632.81;4116064;28;20225;-85
2023/03/06 08:50:30;;;;;;;10.80;9.88;;;;;;;3.15;100.00;97640.00;4105093;28;20232;-86
2023/03/06 08:52:39;;;;;;;10.13;9.15;;;;;;;3.07;100.00;97634.91;4120527;28;20228;-85
2023/03/06 08:54:40;;;;;;;11.10;10.00;;;;;;;3.07;100.00;97626.78;4120945;28;20253;-85
2023/03/06 08:56:42;;;;;;;10.27;9.38;;;;;;;3.13;100.00;97628.59;4117022;28;22230;-87
2023/03/06 08:58:43;;;;;;;10.60;9.57;;;;;;;3.16;100.00;97638.97;4119243;28;20300;-86
2023/03/06 09:00:47;;;;;;;11.10;10.05;;;;;;;3.22;100.00;97637.25;4109317;28;20693;-85
2023/03/06 09:02:49;;;;;;;11.68;10.57;;;;;;;3.08;100.00;97633.84;4117836;28;20211;-83
2023/03/06 09:04:51;;;;;;;10.95;9.82;;;;;;;3.05;100.00;97634.31;4118464;28;20225;-85
2023/03/06 09:06:52;;;;;;;11.70;10.43;;;;;;;3.05;100.00;97641.56;4121602;28;20210;-87
2023/03/06 09:08:56;;;;;;;11.38;10.32;;;;;;;3.01;100.00;97641.19;4120245;28;20214;-86
2023/03/06 09:10:57;;;;;;;12.07;10.75;;;;;;;3.07;100.00;97645.69;4119721;28;20258;-86
2023/03/06 09:12:59;;;;;;;11.85;10.77;;;;;;;3.02;100.00;97637.44;4138933;28;20653;-85
2023/03/06 09:15:03;;;;;;;11.20;10.07;;;;;;;3.04;100.00;97650.72;4121869;28;20240;-85
2023/03/06 09:17:05;;;;;;;11.07;9.98;;;;;;;3.12;100.00;97653.97;4116136;28;20591;-86
2023/03/06 09:19:09;;;;;;;13.30;10.48;;;;;;;3.08;100.00;97646.53;4118610;28;20216;-85
2023/03/06 09:21:14;;;;;;;13.05;11.02;;;;;;;3.14;100.00;97651.88;4123237;28;20210;-85
2023/03/06 09:23:16;;;;;;;12.02;11.02;;;;;;;3.16;100.00;97648.94;4126018;28;20336;-85
2023/03/06 09:25:20;;;;;;;12.07;11.02;;;;;;;3.21;100.00;97647.22;4120270;28;20691;-85
2023/03/06 09:27:22;;;;;;;12.45;11.32;;;;;;;3.34;100.00;97647.06;4120791;28;20305;-85
2023/03/06 09:29:23;;;;;;;11.30;10.23;;;;;;;3.29;100.00;97652.34;4122481;28;20328;-85
2023/03/06 09:31:25;;;;;;;11.35;10.35;;;;;;;3.21;100.00;97644.50;4110710;28;20222;-85
2023/03/06 09:33:30;;;;;;;12.75;11.55;;;;;;;3.32;100.00;97654.56;4125921;28;20238;-84
2023/03/06 09:35:33;;;;;;;12.27;11.25;;;;;;;3.33;100.00;97647.31;4126063;28;20213;-86
2023/03/06 09:37:35;;;;;;;14.73;9.95;;;;;;;3.30;100.00;97651.28;4134309;28;20301;-86
2023/03/06 09:39:40;;;;;;;16.10;12.00;;;;;;;3.36;100.00;97639.56;4128032;28;20738;-85